Bruce L. Hahn — WDH6451 — position and weather

sailwx.info

Track history (hours):
 
Tides and Currents Weather Stations Pressure Air Temp Water Temp Dewpoint Dewpoint Depression Visibility Wind Speed Wind Dir Waves Ship Positions

Bruce L. Hahn

Owner: Marquette Transportation Co. LLC, Paducah, KY. More information available from US FCC via Universal Licensing System and Coast Guard Vessel Documentation Center.

Last reported at 2018-Feb-08 20:30 UTC. Time now 2018-Feb-20 11:24 UTC.
Position N 32°38' W 091°09'.
Warning: this ship's position is 11 days out of date.

Length 52 m; draft 3 m.

Type: Ship (hazmat cat B). MMSI: 367638090.

Date/timePositionNaut miles runAvg speedWind from/ knotsBaromVisibWave heightAir tempDewpointWater temp
2018-Feb-08 20:30N 32°38' W 091°09'2 0.4
2018-Feb-08 16:30N 32°36' W 091°09'0 0.0
2018-Feb-08 15:00N 32°36' W 091°09'0 0.0
2018-Feb-08 14:00N 32°36' W 091°09'0 0.0
2018-Feb-08 13:30N 32°36' W 091°09'2 1.0
2018-Feb-08 12:00N 32°35' W 091°08'2 4.1
2018-Feb-08 11:30N 32°34' W 091°06'2 3.8
2018-Feb-08 11:00N 32°32' W 091°06'4 3.9
2018-Feb-08 10:00N 32°28' W 091°06'2 3.9
2018-Feb-08 09:30N 32°27' W 091°04'2 4.1
2018-Feb-08 09:00N 32°26' W 091°02'2 4.1
2018-Feb-08 08:30N 32°25' W 090°60'4 2.9
2018-Feb-08 07:00N 32°21' W 090°58'2 4.4
2018-Feb-08 06:30N 32°21' W 090°56'2 3.8
2018-Feb-08 06:00N 32°20' W 090°54'2 3.6
2018-Feb-08 05:30N 32°18' W 090°55'0 0.5
2018-Feb-08 05:00N 32°18' W 090°56'0 0.0
2018-Feb-08 04:30N 32°18' W 090°56'1 0.6
2018-Feb-08 03:00N 32°17' W 090°56'2 4.1
2018-Feb-08 02:30N 32°16' W 090°58'4 3.6
2018-Feb-08 01:30N 32°12' W 090°59'0 0.5
2018-Feb-08 01:00N 32°12' W 090°59'1 2.8
2018-Feb-08 00:30N 32°11' W 090°60'2 3.9
2018-Feb-08 00:00N 32°09' W 091°00'2 3.8
2018-Feb-07 23:30N 32°07' W 091°01'4 2.8
2018-Feb-07 22:03N 32°08' W 091°06'0 4.3
2018-Feb-07 22:00N 32°08' W 091°06'2 3.2
2018-Feb-07 21:31N 32°06' W 091°06'  
2018-Feb-02 07:40N 31°59' W 091°11'3 9.0
2018-Feb-02 07:21N 31°59' W 091°07'3 8.5
2018-Feb-02 07:00N 32°01' W 091°05'5 7.6
2018-Feb-02 06:20N 32°06' W 091°06'2 5.2
2018-Feb-02 06:00N 32°08' W 091°06'3 5.8
2018-Feb-02 05:30N 32°07' W 091°03'4 7.5
2018-Feb-02 05:00N 32°10' W 091°00'510.1
2018-Feb-02 04:30N 32°15' W 090°59'5 9.8
2018-Feb-02 04:00N 32°18' W 090°55'3 6.2
2018-Feb-02 03:30N 32°21' W 090°57'3 6.7
2018-Feb-02 03:00N 32°23' W 090°60'4 7.5
2018-Feb-02 02:30N 32°26' W 091°03'4 7.6
2018-Feb-02 02:00N 32°28' W 091°06'5 9.8
2018-Feb-02 01:30N 32°33' W 091°06'5 9.7
2018-Feb-02 01:00N 32°37' W 091°09'  
Track history (hours):
 
Tides and Currents Weather Stations Pressure Air Temp Water Temp Dewpoint Dewpoint Depression Visibility Wind Speed Wind Dir Waves Ship Positions

Bruce L. Hahn

Owner: Marquette Transportation Co. LLC, Paducah, KY. More information available from US FCC via Universal Licensing System and Coast Guard Vessel Documentation Center.

Last reported at 2018-Feb-08 20:30 UTC. Time now 2018-Feb-20 11:24 UTC.
Position N 32°38' W 091°09'.
Warning: this ship's position is 11 days out of date.

Length 52 m; draft 3 m.

Type: Ship (hazmat cat B). MMSI: 367638090.

Date/timePositionNaut miles runAvg speedWind from/ knotsBaromVisibWave heightAir tempDewpointWater temp
2018-Feb-08 20:30N 32°38' W 091°09'2 0.4
2018-Feb-08 16:30N 32°36' W 091°09'0 0.0
2018-Feb-08 15:00N 32°36' W 091°09'0 0.0
2018-Feb-08 14:00N 32°36' W 091°09'0 0.0
2018-Feb-08 13:30N 32°36' W 091°09'2 1.0
2018-Feb-08 12:00N 32°35' W 091°08'2 4.1
2018-Feb-08 11:30N 32°34' W 091°06'2 3.8
2018-Feb-08 11:00N 32°32' W 091°06'4 3.9
2018-Feb-08 10:00N 32°28' W 091°06'2 3.9
2018-Feb-08 09:30N 32°27' W 091°04'2 4.1
2018-Feb-08 09:00N 32°26' W 091°02'2 4.1
2018-Feb-08 08:30N 32°25' W 090°60'4 2.9
2018-Feb-08 07:00N 32°21' W 090°58'2 4.4
2018-Feb-08 06:30N 32°21' W 090°56'2 3.8
2018-Feb-08 06:00N 32°20' W 090°54'2 3.6
2018-Feb-08 05:30N 32°18' W 090°55'0 0.5
2018-Feb-08 05:00N 32°18' W 090°56'0 0.0
2018-Feb-08 04:30N 32°18' W 090°56'1 0.6
2018-Feb-08 03:00N 32°17' W 090°56'2 4.1
2018-Feb-08 02:30N 32°16' W 090°58'4 3.6
2018-Feb-08 01:30N 32°12' W 090°59'0 0.5
2018-Feb-08 01:00N 32°12' W 090°59'1 2.8
2018-Feb-08 00:30N 32°11' W 090°60'2 3.9
2018-Feb-08 00:00N 32°09' W 091°00'2 3.8
2018-Feb-07 23:30N 32°07' W 091°01'4 2.8
2018-Feb-07 22:03N 32°08' W 091°06'0 4.3
2018-Feb-07 22:00N 32°08' W 091°06'2 3.2
2018-Feb-07 21:31N 32°06' W 091°06'  
2018-Feb-02 07:40N 31°59' W 091°11'3 9.0
2018-Feb-02 07:21N 31°59' W 091°07'3 8.5
2018-Feb-02 07:00N 32°01' W 091°05'5 7.6
2018-Feb-02 06:20N 32°06' W 091°06'2 5.2
2018-Feb-02 06:00N 32°08' W 091°06'3 5.8
2018-Feb-02 05:30N 32°07' W 091°03'4 7.5
2018-Feb-02 05:00N 32°10' W 091°00'510.1
2018-Feb-02 04:30N 32°15' W 090°59'5 9.8
2018-Feb-02 04:00N 32°18' W 090°55'3 6.2
2018-Feb-02 03:30N 32°21' W 090°57'3 6.7
2018-Feb-02 03:00N 32°23' W 090°60'4 7.5
2018-Feb-02 02:30N 32°26' W 091°03'4 7.6
2018-Feb-02 02:00N 32°28' W 091°06'5 9.8
2018-Feb-02 01:30N 32°33' W 091°06'5 9.7
2018-Feb-02 01:00N 32°37' W 091°09'  

Dump ship's entire track history